createdAt,value
2023-05-07T00:04:37.918Z,1.88
2023-05-07T00:07:05.183Z,2.10
2023-05-07T00:09:39.213Z,2.10
2023-05-07T00:12:06.532Z,2.03
2023-05-07T00:14:40.204Z,2.00
2023-05-07T00:17:07.440Z,2.03
2023-05-07T00:19:34.644Z,1.83
2023-05-07T00:22:08.177Z,1.98
2023-05-07T00:24:35.552Z,1.90
2023-05-07T00:27:09.207Z,1.70
2023-05-07T00:29:45.201Z,1.67
2023-05-07T00:32:19.186Z,2.05
2023-05-07T00:34:53.099Z,1.88
2023-05-07T00:37:20.380Z,1.77
2023-05-07T00:39:47.615Z,2.00
2023-05-07T00:42:22.222Z,1.90
2023-05-07T00:44:49.499Z,1.55
2023-05-07T00:47:16.729Z,2.03
2023-05-07T00:49:51.145Z,1.90
2023-05-07T00:52:18.922Z,1.90
2023-05-07T00:54:53.153Z,1.75
2023-05-07T00:57:21.166Z,1.83
2023-05-07T00:59:48.337Z,2.03
2023-05-07T01:02:22.305Z,1.80
2023-05-07T01:04:49.482Z,2.10
2023-05-07T01:07:16.943Z,1.90
2023-05-07T01:09:51.225Z,1.90
2023-05-07T01:12:18.592Z,1.85
2023-05-07T01:14:52.252Z,1.85
2023-05-07T01:17:19.572Z,2.10
2023-05-07T01:19:47.006Z,2.42
2023-05-07T01:22:23.166Z,2.35
2023-05-07T01:24:50.430Z,1.83
2023-05-07T01:27:24.336Z,1.95
2023-05-07T01:29:58.178Z,1.95
2023-05-07T01:32:55.265Z,1.75
2023-05-07T01:35:33.055Z,2.13
2023-05-07T01:38:07.255Z,1.40
2023-05-07T01:40:35.553Z,1.90
2023-05-07T01:43:04.947Z,2.15
2023-05-07T01:45:40.467Z,2.10
2023-05-07T01:48:15.125Z,1.80
2023-05-07T01:50:49.216Z,2.22
2023-05-07T01:53:17.536Z,1.90
2023-05-07T01:55:53.420Z,2.58
2023-05-07T01:58:20.638Z,2.40
2023-05-07T02:00:47.729Z,1.88
2023-05-07T02:03:21.247Z,2.05
2023-05-07T02:05:48.470Z,1.98
2023-05-07T02:08:15.905Z,2.10
2023-05-07T02:10:49.217Z,2.20
2023-05-07T02:13:16.513Z,1.88
2023-05-07T02:15:52.166Z,2.08
2023-05-07T02:18:19.393Z,2.10
2023-05-07T02:20:46.512Z,2.00
2023-05-07T02:23:20.263Z,2.38
2023-05-07T02:25:47.566Z,2.05
2023-05-07T02:28:21.088Z,2.47
2023-05-07T02:30:55.596Z,2.00
2023-05-07T02:33:29.110Z,2.20
2023-05-07T02:35:56.354Z,2.40
2023-05-07T02:38:23.776Z,2.20
2023-05-07T02:40:57.101Z,2.15
2023-05-07T02:43:24.350Z,2.17
2023-05-07T02:45:51.468Z,2.25
2023-05-07T02:48:25.347Z,2.13
2023-05-07T02:50:52.575Z,2.30
2023-05-07T02:53:19.684Z,1.70
2023-05-07T02:55:53.166Z,3.03
2023-05-07T02:58:20.605Z,2.28
2023-05-07T03:00:54.307Z,2.25
2023-05-07T03:03:21.635Z,2.40
2023-05-07T03:05:48.729Z,2.22
2023-05-07T03:08:22.303Z,2.53
2023-05-07T03:10:49.510Z,2.25
2023-05-07T03:13:16.752Z,2.45
2023-05-07T03:15:50.233Z,2.40
2023-05-07T03:18:17.520Z,2.90
2023-05-07T03:20:44.720Z,2.50
2023-05-07T03:23:18.260Z,1.98
2023-05-07T03:25:45.490Z,2.00
2023-05-07T03:28:26.163Z,2.10
2023-05-07T03:31:00.072Z,2.50
2023-05-07T03:33:35.162Z,2.40
2023-05-07T03:36:09.226Z,2.35
2023-05-07T03:38:36.382Z,2.25
2023-05-07T03:41:03.564Z,2.05
2023-05-07T03:43:37.136Z,2.50
2023-05-07T03:46:04.453Z,2.30
2023-05-07T03:48:38.244Z,2.40
2023-05-07T03:51:05.831Z,2.90
2023-05-07T03:56:07.386Z,2.33
2023-05-07T03:58:34.966Z,2.42
2023-05-07T04:01:02.269Z,2.58
2023-05-07T04:03:36.244Z,2.10
2023-05-07T04:06:03.751Z,2.30
2023-05-07T04:08:37.217Z,2.22
2023-05-07T04:11:04.498Z,2.00
2023-05-07T04:13:32.078Z,2.35
2023-05-07T04:16:06.317Z,2.17
2023-05-07T04:18:33.517Z,2.15
2023-05-07T04:21:00.696Z,1.65
2023-05-07T04:23:34.177Z,1.90
2023-05-07T04:26:01.892Z,1.92
2023-05-07T04:28:35.110Z,2.10
2023-05-07T04:31:09.281Z,2.15
2023-05-07T04:33:43.132Z,2.30
2023-05-07T04:36:10.424Z,1.65
2023-05-07T04:38:37.795Z,2.63
2023-05-07T04:41:13.217Z,2.00
2023-05-07T04:43:41.126Z,2.30
2023-05-07T04:46:15.240Z,1.92
2023-05-07T04:48:42.399Z,1.80
2023-05-07T04:51:09.627Z,2.03
2023-05-07T04:53:43.202Z,1.77
2023-05-07T04:56:10.469Z,2.25
2023-05-07T04:58:37.871Z,1.88
2023-05-07T05:01:12.178Z,1.95
2023-05-07T05:03:40.687Z,1.95
2023-05-07T05:06:14.569Z,2.20
2023-05-07T05:08:41.930Z,2.20
2023-05-07T05:11:09.006Z,1.80
2023-05-07T05:13:42.295Z,2.20
2023-05-07T05:16:09.545Z,1.80
2023-05-07T05:18:43.253Z,2.10
2023-05-07T05:21:10.446Z,1.90
2023-05-07T05:23:37.542Z,1.80
2023-05-07T05:26:11.296Z,1.80
2023-05-07T05:28:58.118Z,1.77
2023-05-07T05:31:32.739Z,2.17
2023-05-07T05:34:00.274Z,2.10
2023-05-07T05:36:27.858Z,1.92
2023-05-07T05:41:28.660Z,2.25
2023-05-07T05:44:02.399Z,2.25
2023-05-07T05:46:29.670Z,1.95
2023-05-07T05:48:57.081Z,2.10
2023-05-07T05:51:31.186Z,2.08
2023-05-07T05:53:58.397Z,2.00
2023-05-07T05:56:32.442Z,1.83
2023-05-07T05:58:59.748Z,2.28
2023-05-07T06:01:27.182Z,1.90
2023-05-07T06:04:01.306Z,2.00
2023-05-07T06:06:29.168Z,2.30
2023-05-07T06:09:03.192Z,2.03
2023-05-07T06:11:30.378Z,1.83
2023-05-07T06:14:04.281Z,2.10
2023-05-07T06:16:31.482Z,2.00
2023-05-07T06:18:58.584Z,2.00
2023-05-07T06:21:32.232Z,1.75
2023-05-07T06:23:59.400Z,1.67
2023-05-07T06:26:33.340Z,1.70
2023-05-07T06:29:21.188Z,2.00
2023-05-07T06:31:55.274Z,2.00
2023-05-07T06:34:29.114Z,1.83
2023-05-07T06:37:03.345Z,1.70
2023-05-07T06:39:30.439Z,1.80
2023-05-07T06:42:12.401Z,2.05
2023-05-07T06:44:39.559Z,2.20
2023-05-07T06:47:06.628Z,1.90
2023-05-07T06:49:41.458Z,1.92
2023-05-07T06:52:08.685Z,1.90
2023-05-07T06:54:35.783Z,1.75
2023-05-07T06:57:09.427Z,1.92
2023-05-07T06:59:38.268Z,1.42
2023-05-07T07:02:07.998Z,1.70
2023-05-07T07:04:42.900Z,1.60
2023-05-07T07:07:10.591Z,1.55
2023-05-07T07:12:12.000Z,2.20
2023-05-07T07:17:13.460Z,1.70
2023-05-07T07:19:40.738Z,1.80
2023-05-07T07:22:07.819Z,1.70
2023-05-07T07:24:41.221Z,1.83
2023-05-07T07:27:08.425Z,1.75
2023-05-07T07:29:42.237Z,1.70
2023-05-07T07:32:09.786Z,1.67
2023-05-07T07:34:36.956Z,1.63
2023-05-07T07:37:13.404Z,1.73
2023-05-07T07:39:40.655Z,1.85
2023-05-07T07:42:07.853Z,1.50
2023-05-07T07:44:41.277Z,1.55
2023-05-07T07:47:08.597Z,1.73
2023-05-07T07:49:36.500Z,1.45
2023-05-07T07:52:10.239Z,1.70
2023-05-07T07:54:37.386Z,1.67
2023-05-07T07:57:11.180Z,1.90
2023-05-07T07:59:38.650Z,1.55
2023-05-07T08:02:12.224Z,1.50
2023-05-07T08:04:39.527Z,1.65
2023-05-07T08:07:06.841Z,1.45
2023-05-07T08:09:40.457Z,1.30
2023-05-07T08:12:08.019Z,1.48
2023-05-07T08:14:42.241Z,1.63
2023-05-07T08:17:11.262Z,1.67
2023-05-07T08:19:38.565Z,1.45
2023-05-07T08:22:13.438Z,1.63
2023-05-07T08:24:40.574Z,1.50
2023-05-07T08:27:07.670Z,1.60
2023-05-07T08:29:41.311Z,1.30
2023-05-07T08:32:08.543Z,1.60
2023-05-07T08:34:35.739Z,1.15
2023-05-07T08:37:09.392Z,1.52
2023-05-07T08:39:36.697Z,1.20
2023-05-07T08:42:12.327Z,1.40
2023-05-07T08:44:40.125Z,1.10
2023-05-07T08:47:08.447Z,1.52
2023-05-07T08:49:42.498Z,1.48
2023-05-07T08:52:10.267Z,1.35
2023-05-07T08:54:39.218Z,1.20
2023-05-07T08:57:13.272Z,1.13
2023-05-07T08:59:40.533Z,1.30
2023-05-07T09:02:10.109Z,0.90
2023-05-07T09:04:44.332Z,1.60
2023-05-07T09:07:11.956Z,1.45
2023-05-07T09:12:12.733Z,1.40
2023-05-07T09:14:40.516Z,1.30
2023-05-07T09:17:14.289Z,1.33
2023-05-07T09:19:41.720Z,0.98
2023-05-07T09:22:15.523Z,1.10
2023-05-07T09:24:42.777Z,1.30
2023-05-07T09:27:11.634Z,1.40
2023-05-07T09:29:45.389Z,1.40
2023-05-07T09:32:12.676Z,1.55
2023-05-07T09:34:39.909Z,1.70
2023-05-07T09:37:14.237Z,1.48
2023-05-07T09:39:55.222Z,1.30
2023-05-07T09:42:27.632Z,1.20
2023-05-07T09:44:54.858Z,1.20
2023-05-07T09:47:29.446Z,1.42
2023-05-07T09:50:00.953Z,1.23
2023-05-07T09:52:41.354Z,1.15
2023-05-07T09:55:09.104Z,1.00
2023-05-07T09:57:43.379Z,1.30
2023-05-07T10:00:10.751Z,1.30
2023-05-07T10:02:38.210Z,1.20
2023-05-07T10:05:15.333Z,1.55
2023-05-07T10:07:42.984Z,1.02
2023-05-07T10:12:43.840Z,1.30
2023-05-07T10:15:11.800Z,1.40
2023-05-07T10:17:46.407Z,1.38
2023-05-07T10:20:13.751Z,1.30
2023-05-07T10:22:50.571Z,1.15
2023-05-07T10:25:27.555Z,1.30
2023-05-07T10:28:02.394Z,1.30
2023-05-07T10:31:08.213Z,1.10
2023-05-07T10:33:42.302Z,1.40
2023-05-07T10:36:09.518Z,1.48
2023-05-07T10:38:36.840Z,1.35
2023-05-07T10:41:13.413Z,1.40
2023-05-07T10:43:44.666Z,1.20
2023-05-07T10:46:23.482Z,1.23
2023-05-07T10:49:03.760Z,1.40
2023-05-07T10:51:41.373Z,1.20
2023-05-07T10:54:11.698Z,1.45
2023-05-07T10:56:50.349Z,1.60
2023-05-07T10:59:31.684Z,1.17
2023-05-07T11:02:14.507Z,1.85
2023-05-07T11:04:42.685Z,1.10
2023-05-07T11:07:10.202Z,1.92
2023-05-07T11:10:06.542Z,1.40
2023-05-07T11:12:40.214Z,1.75
2023-05-07T11:15:17.519Z,1.40
2023-05-07T11:17:55.057Z,1.27
2023-05-07T11:20:29.313Z,1.60
2023-05-07T11:22:58.082Z,1.58
2023-05-07T11:25:32.319Z,1.50
2023-05-07T11:28:05.960Z,1.63
2023-05-07T11:30:40.413Z,1.60
2023-05-07T11:33:07.624Z,1.40
2023-05-07T11:35:37.118Z,1.58
2023-05-07T11:38:11.409Z,1.50
2023-05-07T11:40:50.287Z,1.80
2023-05-07T11:43:24.375Z,1.70
2023-05-07T11:45:51.882Z,1.38
2023-05-07T11:48:19.109Z,1.30
2023-05-07T11:51:22.397Z,1.63
2023-05-07T11:53:50.075Z,1.52
2023-05-07T11:56:25.417Z,1.48
2023-05-07T11:58:53.247Z,1.67
2023-05-07T12:01:27.496Z,1.20
2023-05-07T12:03:54.709Z,1.38
2023-05-07T12:06:22.063Z,1.30
2023-05-07T12:08:56.313Z,1.60
2023-05-07T12:11:25.042Z,1.52
2023-05-07T12:14:01.338Z,1.70
2023-05-07T12:16:29.037Z,1.80
2023-05-07T12:19:03.466Z,1.70
2023-05-07T12:21:31.049Z,1.45
2023-05-07T12:26:32.366Z,1.80
2023-05-07T12:29:19.255Z,1.65
2023-05-07T12:31:53.507Z,1.77
2023-05-07T12:34:20.741Z,1.65
2023-05-07T12:36:49.638Z,1.40
2023-05-07T12:39:23.933Z,1.70
2023-05-07T12:41:55.299Z,2.00
2023-05-07T12:44:32.384Z,1.52
2023-05-07T12:47:01.287Z,1.42
2023-05-07T12:49:35.570Z,1.73
2023-05-07T12:52:03.502Z,1.65
2023-05-07T12:54:31.523Z,1.50
2023-05-07T12:57:13.466Z,1.70
2023-05-07T12:59:43.172Z,1.80
2023-05-07T13:02:17.385Z,1.80
2023-05-07T13:04:44.504Z,1.40
2023-05-07T13:07:11.811Z,1.60
2023-05-07T13:09:45.399Z,1.80
2023-05-07T13:12:12.615Z,1.70
2023-05-07T13:14:39.924Z,2.67
2023-05-07T13:17:14.346Z,1.38
2023-05-07T13:19:41.633Z,1.35
2023-05-07T13:22:15.485Z,1.88
2023-05-07T13:24:44.637Z,1.73
2023-05-07T13:27:11.816Z,1.50
2023-05-07T13:29:45.352Z,1.25
2023-05-07T13:32:19.292Z,1.70
2023-05-07T13:34:53.476Z,1.50
2023-05-07T13:37:21.220Z,1.60
2023-05-07T13:39:48.359Z,1.88
2023-05-07T13:42:22.459Z,1.70
2023-05-07T13:44:49.753Z,1.70
2023-05-07T13:47:16.853Z,1.40
2023-05-07T13:49:50.386Z,1.60
2023-05-07T13:52:18.014Z,2.15
2023-05-07T13:57:18.691Z,1.50
2023-05-07T13:59:45.795Z,1.45
2023-05-07T14:02:19.510Z,1.65
2023-05-07T14:04:46.809Z,1.77
2023-05-07T14:07:20.526Z,1.70
2023-05-07T14:09:47.733Z,1.80
2023-05-07T14:12:14.848Z,1.88
2023-05-07T14:14:48.363Z,1.75
2023-05-07T14:17:15.955Z,1.60
2023-05-07T14:19:49.382Z,1.52
2023-05-07T14:22:16.681Z,1.48
2023-05-07T14:24:45.195Z,1.35
2023-05-07T14:27:20.524Z,1.67
2023-05-07T14:29:54.521Z,1.30
2023-05-07T14:32:28.518Z,1.40
2023-05-07T14:34:56.142Z,1.70
2023-05-07T14:39:56.488Z,1.67
2023-05-07T14:42:23.684Z,1.67
2023-05-07T14:44:50.773Z,1.50
2023-05-07T14:47:24.539Z,1.83
2023-05-07T14:49:52.189Z,1.70
2023-05-07T14:52:26.507Z,1.50
2023-05-07T14:54:53.731Z,1.75
2023-05-07T14:57:21.156Z,1.58
2023-05-07T14:59:55.520Z,1.73
2023-05-07T15:02:22.995Z,1.65
2023-05-07T15:04:57.399Z,2.03
2023-05-07T15:07:24.497Z,1.70
2023-05-07T15:09:52.283Z,1.60
2023-05-07T15:12:26.382Z,1.70
2023-05-07T15:14:53.564Z,1.52
2023-05-07T15:17:27.487Z,1.95
2023-05-07T15:19:54.883Z,2.28
2023-05-07T15:22:22.756Z,2.00
2023-05-07T15:24:56.370Z,2.40
2023-05-07T15:27:23.533Z,1.90
2023-05-07T15:29:57.441Z,2.05
2023-05-07T15:32:24.645Z,1.90
2023-05-07T15:34:51.806Z,2.28
2023-05-07T15:37:25.583Z,2.40
2023-05-07T15:39:52.750Z,2.38
2023-05-07T15:42:27.759Z,2.42
2023-05-07T15:44:54.932Z,2.22
2023-05-07T15:47:22.815Z,2.25
2023-05-07T15:49:56.624Z,1.98
2023-05-07T15:52:23.790Z,2.00
2023-05-07T15:54:50.960Z,2.40
2023-05-07T15:57:24.489Z,1.92
2023-05-07T15:59:51.718Z,1.63
2023-05-07T16:02:25.614Z,1.92
2023-05-07T16:04:52.959Z,1.50
2023-05-07T16:07:20.136Z,1.40
2023-05-07T16:09:54.492Z,1.80
2023-05-07T16:12:22.585Z,1.30
2023-05-07T16:14:51.319Z,1.80
2023-05-07T16:17:25.569Z,1.38
2023-05-07T16:19:53.256Z,1.20
2023-05-07T16:22:43.410Z,1.30
2023-05-07T16:25:24.451Z,1.55
2023-05-07T16:27:58.529Z,1.30
2023-05-07T16:30:39.396Z,1.20
2023-05-07T16:33:06.910Z,1.40
2023-05-07T16:38:07.414Z,1.40
2023-05-07T16:40:36.710Z,1.52
2023-05-07T16:43:10.444Z,1.42
2023-05-07T16:45:37.574Z,1.67
2023-05-07T16:48:05.548Z,1.73
2023-05-07T16:50:39.552Z,1.70
2023-05-07T16:53:07.373Z,1.70
2023-05-07T16:55:38.780Z,1.60
2023-05-07T16:58:13.428Z,1.58
2023-05-07T17:03:17.864Z,1.77
2023-05-07T17:05:45.377Z,1.52
2023-05-07T17:08:13.944Z,1.38
2023-05-07T17:10:48.575Z,1.55
2023-05-07T17:13:15.861Z,1.63
2023-05-07T17:15:55.632Z,1.52
2023-05-07T17:18:29.428Z,1.55
2023-05-07T17:20:56.744Z,1.30
2023-05-07T17:23:37.396Z,1.70
2023-05-07T17:26:11.504Z,1.55
2023-05-07T17:28:38.696Z,1.27
2023-05-07T17:31:18.504Z,1.33
2023-05-07T17:33:45.684Z,1.70
2023-05-07T17:38:49.573Z,1.20
2023-05-07T17:41:23.444Z,1.70
2023-05-07T17:43:50.813Z,1.30
2023-05-07T17:46:18.329Z,1.33
2023-05-07T17:48:52.588Z,1.55
2023-05-07T17:51:20.298Z,1.55
2023-05-07T17:53:54.484Z,1.63
2023-05-07T17:56:21.667Z,1.25
2023-05-07T18:01:28.517Z,1.63
2023-05-07T18:03:55.975Z,1.40
2023-05-07T18:06:29.544Z,1.42
2023-05-07T18:08:56.888Z,1.77
2023-05-07T18:11:31.590Z,1.52
2023-05-07T18:13:58.821Z,1.95
2023-05-07T18:16:25.954Z,1.50
2023-05-07T18:18:59.613Z,1.38
2023-05-07T18:21:27.219Z,1.50
2023-05-07T18:26:28.488Z,1.60
2023-05-07T18:28:55.690Z,1.50
2023-05-07T18:31:38.067Z,1.60
2023-05-07T18:34:06.634Z,1.52
2023-05-07T18:36:33.826Z,1.60
2023-05-07T18:39:07.529Z,1.60
2023-05-07T18:41:34.765Z,1.70
2023-05-07T18:44:08.612Z,1.58
2023-05-07T18:46:35.942Z,1.58
2023-05-07T18:49:03.404Z,1.33
2023-05-07T18:51:37.549Z,1.77
2023-05-07T18:54:04.770Z,1.40
2023-05-07T18:56:38.573Z,1.33
2023-05-07T18:59:05.692Z,1.60
2023-05-07T19:01:32.790Z,1.50
2023-05-07T19:04:06.670Z,1.63
2023-05-07T19:06:33.991Z,1.23
2023-05-07T19:09:01.207Z,2.00
2023-05-07T19:11:35.514Z,1.48
2023-05-07T19:14:04.529Z,1.63
2023-05-07T19:16:38.817Z,1.45
2023-05-07T19:19:06.780Z,1.60
2023-05-07T19:21:34.051Z,1.95
2023-05-07T19:24:08.794Z,1.70
2023-05-07T19:26:37.351Z,1.35
2023-05-07T19:29:17.971Z,1.63
2023-05-07T19:31:52.544Z,2.03
2023-05-07T19:34:26.646Z,1.70
2023-05-07T19:36:53.861Z,1.60
2023-05-07T19:39:20.999Z,1.58
2023-05-07T19:41:54.515Z,1.67
2023-05-07T19:44:21.766Z,1.83
2023-05-07T19:46:55.537Z,1.60
2023-05-07T19:49:23.119Z,1.90
2023-05-07T19:54:23.697Z,1.38
2023-05-07T19:56:50.902Z,1.67
2023-05-07T19:59:18.023Z,1.60
2023-05-07T20:01:51.538Z,1.70
2023-05-07T20:04:19.250Z,1.73
2023-05-07T20:09:19.769Z,1.70
2023-05-07T20:11:46.866Z,1.90
2023-05-07T20:14:20.506Z,1.70
2023-05-07T20:16:47.922Z,1.63
2023-05-07T20:19:23.719Z,1.67
2023-05-07T20:21:50.811Z,1.80
2023-05-07T20:24:19.273Z,1.70
2023-05-07T20:26:53.501Z,2.10
2023-05-07T20:29:20.618Z,1.80
2023-05-07T20:32:01.798Z,1.63
2023-05-07T20:34:29.079Z,2.00
2023-05-07T20:36:56.993Z,1.70
2023-05-07T20:39:31.494Z,1.90
2023-05-07T20:41:59.735Z,1.77
2023-05-07T20:44:33.669Z,1.88
2023-05-07T20:47:00.814Z,1.55
2023-05-07T20:49:28.188Z,1.88
2023-05-07T20:52:02.593Z,1.95
2023-05-07T20:54:30.162Z,1.90
2023-05-07T20:59:35.377Z,1.70
2023-05-07T21:02:03.353Z,1.73
2023-05-07T21:04:37.573Z,1.70
2023-05-07T21:07:04.860Z,1.90
2023-05-07T21:09:31.948Z,1.98
2023-05-07T21:12:05.735Z,1.60
2023-05-07T21:14:32.897Z,2.25
2023-05-07T21:17:00.534Z,1.77
2023-05-07T21:19:34.625Z,1.95
2023-05-07T21:22:01.828Z,1.90
2023-05-07T21:24:35.696Z,2.05
2023-05-07T21:27:02.940Z,1.80
2023-05-07T21:29:30.056Z,1.85
2023-05-07T21:32:03.653Z,1.98
2023-05-07T21:34:30.951Z,2.10
2023-05-07T21:37:04.651Z,1.98
2023-05-07T21:39:32.046Z,1.90
2023-05-07T21:41:59.176Z,1.95
2023-05-07T21:44:35.657Z,2.45
2023-05-07T21:47:02.975Z,1.83
2023-05-07T21:49:30.166Z,2.20
2023-05-07T21:52:03.506Z,1.92
2023-05-07T21:54:30.687Z,2.08
2023-05-07T21:57:04.559Z,2.28
2023-05-07T21:59:31.808Z,2.00
2023-05-07T22:01:59.000Z,2.95
2023-05-07T22:04:32.617Z,2.13
2023-05-07T22:06:59.786Z,2.13
2023-05-07T22:09:27.146Z,2.17
2023-05-07T22:12:01.547Z,2.35
2023-05-07T22:14:28.725Z,2.10
2023-05-07T22:17:02.740Z,2.40
2023-05-07T22:19:29.918Z,2.13
2023-05-07T22:21:57.084Z,2.13
2023-05-07T22:24:30.537Z,2.17
2023-05-07T22:26:57.791Z,2.08
2023-05-07T22:29:24.929Z,1.73
2023-05-07T22:31:58.656Z,3.00
2023-05-07T22:34:25.986Z,2.20
2023-05-07T22:36:59.608Z,2.80
2023-05-07T22:39:27.254Z,2.20
2023-05-07T22:44:27.529Z,2.08
2023-05-07T22:46:54.843Z,2.03
2023-05-07T22:49:28.685Z,2.67
2023-05-07T22:51:55.899Z,2.58
2023-05-07T22:54:24.259Z,2.45
2023-05-07T22:56:59.605Z,2.60
2023-05-07T22:59:26.949Z,2.50
2023-05-07T23:02:00.713Z,2.30
2023-05-07T23:04:28.333Z,2.33
2023-05-07T23:09:29.660Z,2.53
2023-05-07T23:11:56.875Z,2.47
2023-05-07T23:14:30.623Z,2.42
2023-05-07T23:16:57.794Z,2.55
